Pagrindinis puslapis
METAR-TAF:

METAR-TAF

Oro uostai :

Ormond Beach Municipal Airport

Ormond Beach, Florida, Jungtinės Amerikos Valstijos

platuma: 29-18-04N, ilguma: 081-06-49W, Aukštis: 9 m

Dabartinis oras

Ataskaita buvo paskelbta 25 minutes, ne 10:50 UTC
Ramus vėjas
Temperatūra 35°C
Drėgmė 50%
Slėgis 1015 hPa
Matomumas: 8.0 km
Su prošvaistėmis ne aukštis 3500 ft
rūkana

METAR: KOMN 041050Z 00000KT 5SM BR BKN035 35/23 A2997 RMK FIRST

Laikas: 07:15 (11:15 UTC)


TAF: trūkstamas

Orai ataskaitas ir orų prognozės (METAR, TAF).

turimą stotys yra geltonos ir raudonos taškus žemėlapyje.

Perkelti pele per norėdami pamatyti stoties vardą.

Tada spustelėkite, norėdami matyti oro stebėjimo ir prognozės.

Norėdami pakeisti žemėlapį: spustelėkite ant žalios mygtukų su juodo kryžiaus žemyn,; žalią mygtuką su brūkšneliu, jei norite nutolinti; arba žalių rodyklių gretimoms žemėlapius.


METAR-TAF: